Time;durP1;ratioP1;P1;durP2;ratioP2;P2;SDS_P1;SDS_P2;PMS_P1;PMS_P2;Temp;Humidity;BMP_temperature;BMP_pressure;BME280_temperature;BME280_humidity;BME280_pressure;Samples;Min_cycle;Max_cycle;Signal;HPM_P1;HPM_P2
2022/09/24 00:00:01;;;;;;;11.15;4.82;;;;;;;12.59;100.00;101085.06;6197735;28;20050;-72
2022/09/24 00:03:03;;;;;;;6.57;4.32;;;;;;;12.58;100.00;101075.41;6197609;28;20495;-72
2022/09/24 00:06:06;;;;;;;7.68;4.32;;;;;;;12.56;100.00;101080.78;6197228;28;20137;-72
2022/09/24 00:09:07;;;;;;;7.20;4.43;;;;;;;12.53;100.00;101078.31;6197673;28;20058;-71
2022/09/24 00:12:12;;;;;;;6.78;4.07;;;;;;;12.50;100.00;101081.16;6197216;28;20395;-72
2022/09/24 00:15:14;;;;;;;7.35;4.32;;;;;;;12.47;100.00;101073.41;6197188;28;20498;-72
2022/09/24 00:18:18;;;;;;;7.32;4.22;;;;;;;12.47;100.00;101070.75;6197535;28;20079;-72
2022/09/24 00:21:22;;;;;;;9.63;4.38;;;;;;;12.50;100.00;101067.13;6198039;28;20046;-72
2022/09/24 00:27:39;;;;;;;6.80;4.28;;;;;;;12.46;100.00;101069.06;6175284;28;20387;-72
2022/09/24 00:30:43;;;;;;;4.50;3.17;;;;;;;12.48;100.00;101061.06;6196948;28;20133;-72
2022/09/24 00:33:45;;;;;;;8.68;4.47;;;;;;;12.44;100.00;101069.16;6197193;28;20057;-72
2022/09/24 00:36:47;;;;;;;6.70;4.00;;;;;;;12.42;100.00;101064.91;6197217;28;20054;-72
2022/09/24 00:39:48;;;;;;;8.43;4.40;;;;;;;12.40;100.00;101065.00;6197373;28;20053;-71
2022/09/24 00:42:49;;;;;;;7.80;4.78;;;;;;;12.40;100.00;101061.53;6196887;28;20493;-71
2022/09/24 00:45:55;;;;;;;7.68;4.25;;;;;;;12.39;100.00;101057.16;6197244;28;20057;-72
2022/09/24 00:49:00;;;;;;;7.47;4.47;;;;;;;12.38;100.00;101051.03;6198846;28;20133;-72
2022/09/24 00:52:02;;;;;;;11.10;4.72;;;;;;;12.36;100.00;101058.19;6201592;28;20425;-72
2022/09/24 00:55:04;;;;;;;12.35;5.93;;;;;;;12.37;100.00;101048.50;6201448;28;20651;-72
2022/09/24 00:58:08;;;;;;;7.30;4.43;;;;;;;12.37;100.00;101053.78;6201670;28;20050;-72
2022/09/24 01:01:11;;;;;;;9.55;4.32;;;;;;;12.36;100.00;101057.34;6201553;28;20061;-72
2022/09/24 01:04:13;;;;;;;6.32;4.45;;;;;;;12.35;100.00;101056.50;6201224;28;20486;-72
2022/09/24 01:07:15;;;;;;;10.40;4.07;;;;;;;12.36;100.00;101052.09;6201663;28;20046;-72
2022/09/24 01:10:46;;;;;;;8.02;5.25;;;;;;;12.37;100.00;101048.50;6201018;28;20058;-72
2022/09/24 01:13:56;;;;;;;7.15;4.25;;;;;;;12.39;100.00;101054.53;6200974;28;20046;-71
2022/09/24 01:17:06;;;;;;;9.38;5.18;;;;;;;12.38;100.00;101050.19;6201106;28;20065;-72
2022/09/24 01:20:46;;;;;;;9.15;4.90;;;;;;;12.38;100.00;101044.91;6201106;28;20062;-72
2022/09/24 01:24:14;;;;;;;9.02;5.22;;;;;;;12.38;100.00;101047.56;6201059;28;20057;-72
2022/09/24 01:27:19;;;;;;;9.00;4.93;;;;;;;12.38;100.00;101043.13;6201094;28;20058;-72
2022/09/24 01:30:24;;;;;;;7.80;4.82;;;;;;;12.36;100.00;101039.75;6200972;28;20494;-72
2022/09/24 01:33:28;;;;;;;7.40;4.60;;;;;;;12.36;100.00;101041.53;6200892;28;20053;-72
2022/09/24 01:36:31;;;;;;;7.88;4.72;;;;;;;12.35;100.00;101039.81;6200759;28;20058;-72
2022/09/24 01:39:35;;;;;;;10.75;4.50;;;;;;;12.33;100.00;101039.91;6200746;28;20046;-71
2022/09/24 01:42:42;;;;;;;8.10;4.50;;;;;;;12.35;100.00;101043.31;6200704;28;20057;-71
2022/09/24 01:45:44;;;;;;;9.27;4.57;;;;;;;12.36;100.00;101039.75;6200151;28;20065;-72
2022/09/24 01:48:47;;;;;;;11.82;5.43;;;;;;;12.38;100.00;101035.22;6205253;28;20049;-72
2022/09/24 01:51:54;;;;;;;10.00;5.35;;;;;;;12.37;100.00;101036.16;6212817;28;20545;-72
2022/09/24 01:54:58;;;;;;;7.82;4.68;;;;;;;12.39;100.00;101036.06;6200115;28;20137;-72
2022/09/24 01:58:04;;;;;;;7.85;5.28;;;;;;;12.36;100.00;101029.22;6200362;28;20057;-71
2022/09/24 02:01:12;;;;;;;6.88;4.65;;;;;;;12.34;100.00;101036.34;6198913;28;20061;-72
2022/09/24 02:04:18;;;;;;;7.78;5.05;;;;;;;12.35;100.00;101031.91;6199829;28;20486;-72
2022/09/24 02:07:24;;;;;;;7.35;5.00;;;;;;;12.37;100.00;101035.31;6200320;28;20152;-71
2022/09/24 02:10:30;;;;;;;6.43;4.82;;;;;;;12.36;100.00;101031.00;6202429;28;20073;-72
2022/09/24 02:13:38;;;;;;;7.55;4.78;;;;;;;12.35;100.00;101030.16;6217926;28;20042;-72
2022/09/24 02:16:46;;;;;;;9.65;5.15;;;;;;;12.34;100.00;101028.44;6216917;28;20053;-72
2022/09/24 02:19:49;;;;;;;7.60;4.97;;;;;;;12.32;100.00;101034.72;6215844;28;20050;-71
2022/09/24 02:22:52;;;;;;;9.55;5.63;;;;;;;12.29;100.00;101033.09;6212472;28;20053;-72
2022/09/24 02:25:58;;;;;;;9.73;5.78;;;;;;;12.24;100.00;101037.78;6215371;28;20057;-72
2022/09/24 02:28:59;;;;;;;9.70;6.10;;;;;;;12.22;100.00;101025.63;6223969;28;20069;-72
2022/09/24 02:32:04;;;;;;;8.73;5.45;;;;;;;12.18;100.00;101023.19;6223632;28;20046;-72
2022/09/24 02:35:09;;;;;;;8.75;5.30;;;;;;;12.15;100.00;101023.34;6223627;28;20049;-72
2022/09/24 02:38:15;;;;;;;8.43;5.43;;;;;;;12.14;100.00;101024.28;6223960;28;20049;-72
2022/09/24 02:41:18;;;;;;;13.02;6.63;;;;;;;12.13;100.00;101019.09;6223532;28;20144;-72
2022/09/24 02:44:21;;;;;;;7.25;5.50;;;;;;;12.08;100.00;101019.34;6219869;28;20053;-72
2022/09/24 02:47:23;;;;;;;12.68;5.75;;;;;;;12.08;100.00;101016.72;6223718;28;20493;-72
2022/09/24 02:50:25;;;;;;;9.77;5.72;;;;;;;12.06;100.00;101009.81;6223152;28;20417;-72
2022/09/24 02:53:26;;;;;;;18.48;6.40;;;;;;;12.02;100.00;101005.66;6222820;28;20522;-71
2022/09/24 02:56:28;;;;;;;11.23;6.72;;;;;;;11.99;100.00;100997.91;6222848;28;20061;-72
2022/09/24 02:59:29;;;;;;;10.27;5.90;;;;;;;11.99;100.00;101000.56;6223316;28;20132;-72
2022/09/24 03:02:32;;;;;;;12.52;6.15;;;;;;;11.99;100.00;100996.16;6222761;28;20050;-72
2022/09/24 03:05:33;;;;;;;12.75;6.70;;;;;;;12.00;100.00;100992.59;6222723;28;20073;-71
2022/09/24 03:08:35;;;;;;;10.45;5.82;;;;;;;12.02;100.00;100993.34;6223144;28;20089;-71
2022/09/24 03:11:36;;;;;;;9.63;5.65;;;;;;;11.97;100.00;100992.75;6222635;28;20054;-72
2022/09/24 03:14:37;;;;;;;10.38;6.32;;;;;;;11.95;100.00;100993.78;6222527;28;20046;-71
2022/09/24 03:17:40;;;;;;;8.93;5.93;;;;;;;11.90;100.00;100991.41;6223106;28;20050;-72
2022/09/24 03:20:42;;;;;;;10.90;5.22;;;;;;;11.88;100.00;100991.47;6222427;28;20061;-72
2022/09/24 03:23:44;;;;;;;10.65;6.57;;;;;;;11.86;100.00;100987.22;6222583;28;20046;-71
2022/09/24 03:26:45;;;;;;;11.00;6.03;;;;;;;11.85;100.00;100982.88;6222774;28;20053;-71
2022/09/24 03:33:07;;;;;;;9.80;6.35;;;;;;;11.82;100.00;100978.66;6222806;28;20050;-71
2022/09/24 03:36:10;;;;;;;17.35;6.50;;;;;;;11.81;100.00;100973.41;6221878;28;20046;-71
2022/09/24 03:39:12;;;;;;;10.45;6.32;;;;;;;11.79;100.00;100976.13;6222788;28;20497;-71
2022/09/24 03:42:13;;;;;;;11.75;7.20;;;;;;;11.76;100.00;100971.03;6221957;28;20050;-71
2022/09/24 03:45:14;;;;;;;11.68;6.65;;;;;;;11.76;100.00;100968.41;6222096;28;20050;-71
2022/09/24 03:48:19;;;;;;;13.43;6.43;;;;;;;11.77;100.00;100966.63;6222186;28;20072;-71
2022/09/24 03:51:20;;;;;;;17.50;7.05;;;;;;;11.74;100.00;100967.63;6222123;28;20053;-71
2022/09/24 03:54:21;;;;;;;12.13;7.57;;;;;;;11.73;100.00;100967.75;6222067;28;20136;-71
2022/09/24 03:57:23;;;;;;;13.70;7.22;;;;;;;11.78;100.00;100968.34;6222405;28;20057;-71
2022/09/24 04:00:24;;;;;;;12.70;7.45;;;;;;;11.79;100.00;100964.75;6221733;28;20046;-71
2022/09/24 04:03:27;;;;;;;13.43;7.45;;;;;;;11.83;100.00;100967.16;6222302;28;20050;-71
2022/09/24 04:06:28;;;;;;;16.63;7.82;;;;;;;11.85;100.00;100967.06;6221750;28;20079;-71
2022/09/24 04:09:30;;;;;;;12.65;7.25;;;;;;;11.85;100.00;100957.38;6222193;28;20050;-71
2022/09/24 04:12:31;;;;;;;11.80;7.10;;;;;;;11.86;100.00;100959.09;6221885;28;20049;-71
2022/09/24 04:15:33;;;;;;;12.38;7.13;;;;;;;11.85;100.00;100962.66;6221377;28;20595;-71
2022/09/24 04:18:36;;;;;;;14.68;7.50;;;;;;;11.87;100.00;100957.31;6222086;28;20200;-71
2022/09/24 04:21:37;;;;;;;11.80;7.43;;;;;;;11.86;100.00;100961.75;6221466;28;20057;-71
2022/09/24 04:24:39;;;;;;;12.68;7.07;;;;;;;11.86;100.00;100958.25;6224274;28;20491;-71
2022/09/24 04:27:40;;;;;;;11.98;7.35;;;;;;;11.84;100.00;100953.06;6226672;28;20046;-71
2022/09/24 04:30:41;;;;;;;12.32;6.70;;;;;;;11.83;100.00;100951.38;6226656;28;20489;-71
2022/09/24 04:33:44;;;;;;;15.07;7.63;;;;;;;11.80;100.00;100951.50;6226308;28;20042;-71
2022/09/24 04:36:45;;;;;;;13.20;8.10;;;;;;;11.77;100.00;100949.06;6226693;28;20425;-71
2022/09/24 04:39:47;;;;;;;13.25;8.23;;;;;;;11.78;100.00;100945.47;6226277;28;20050;-71
2022/09/24 04:42:48;;;;;;;15.00;7.63;;;;;;;11.77;100.00;100950.84;6226435;28;20064;-71
2022/09/24 04:45:50;;;;;;;19.42;8.52;;;;;;;11.76;100.00;100960.50;6226045;28;20052;-71
2022/09/24 04:48:53;;;;;;;13.05;8.60;;;;;;;11.77;100.00;100954.31;6226358;28;20077;-70
2022/09/24 04:51:57;;;;;;;14.38;8.55;;;;;;;11.78;100.00;100957.81;6225954;28;20083;-71
2022/09/24 04:54:58;;;;;;;12.93;8.02;;;;;;;11.78;100.00;100958.66;6225686;28;20045;-70
2022/09/24 04:58:00;;;;;;;14.07;8.20;;;;;;;11.76;100.00;100949.97;6226368;28;20075;-71
2022/09/24 05:01:02;;;;;;;17.33;9.10;;;;;;;11.75;100.00;100945.63;6225679;28;20049;-71
2022/09/24 05:04:05;;;;;;;14.63;9.00;;;;;;;11.72;100.00;100950.22;6225776;28;20065;-71
2022/09/24 05:07:06;;;;;;;16.90;9.07;;;;;;;11.72;100.00;100953.72;6225849;28;20053;-70
2022/09/24 05:10:08;;;;;;;16.55;9.05;;;;;;;11.73;100.00;100954.56;6225796;28;20050;-71
2022/09/24 05:13:10;;;;;;;14.25;8.45;;;;;;;11.72;100.00;100960.75;6225814;28;20053;-70
2022/09/24 05:16:11;;;;;;;13.02;8.15;;;;;;;11.71;100.00;100959.91;6225509;28;20046;-70
2022/09/24 05:19:14;;;;;;;14.40;8.38;;;;;;;11.71;100.00;100957.28;6225793;28;20065;-71
2022/09/24 05:22:15;;;;;;;15.63;8.85;;;;;;;11.71;100.00;100952.00;6225239;28;20521;-70
2022/09/24 05:25:19;;;;;;;13.32;8.23;;;;;;;11.73;100.00;100954.56;6225344;28;20061;-71
2022/09/24 05:28:20;;;;;;;16.05;9.18;;;;;;;11.74;100.00;100956.25;6225428;28;20049;-71
2022/09/24 05:31:21;;;;;;;15.95;9.68;;;;;;;11.73;100.00;100958.06;6224927;28;20054;-70
2022/09/24 05:34:24;;;;;;;15.75;8.80;;;;;;;11.71;100.00;100959.06;6224604;28;20053;-71
2022/09/24 05:37:25;;;;;;;15.23;9.68;;;;;;;11.69;100.00;100953.88;6225180;28;20045;-71
2022/09/24 05:43:45;;;;;;;17.83;8.70;;;;;;;11.63;100.00;100960.34;6224499;28;20053;-71
2022/09/24 05:46:47;;;;;;;19.00;9.45;;;;;;;11.64;100.00;100963.81;6224954;28;20060;-71
2022/09/24 05:49:50;;;;;;;21.35;10.82;;;;;;;11.65;100.00;100966.34;6224802;28;20054;-70
2022/09/24 05:52:51;;;;;;;19.65;9.93;;;;;;;11.66;100.00;100968.03;6224854;28;20049;-70
2022/09/24 05:55:53;;;;;;;20.67;10.48;;;;;;;11.67;100.00;100967.13;6224572;28;20046;-71
2022/09/24 05:58:54;;;;;;;20.90;10.90;;;;;;;11.69;100.00;100969.69;6224800;28;20052;-71
2022/09/24 06:01:56;;;;;;;12.48;8.55;;;;;;;11.72;100.00;100971.28;6224215;28;20180;-71
2022/09/24 06:04:58;;;;;;;18.85;9.52;;;;;;;11.74;100.00;100978.16;6224152;28;20046;-70
2022/09/24 06:08:00;;;;;;;18.20;9.20;;;;;;;11.76;100.00;100976.28;6224531;28;20050;-71
2022/09/24 06:11:04;;;;;;;17.35;10.02;;;;;;;11.77;100.00;100980.66;6223972;28;20510;-71
2022/09/24 06:14:05;;;;;;;16.33;9.25;;;;;;;11.76;100.00;100980.72;6224083;28;20052;-70
2022/09/24 06:17:06;;;;;;;15.85;8.73;;;;;;;11.77;100.00;100978.03;6224467;28;20054;-71
2022/09/24 06:20:09;;;;;;;19.73;10.35;;;;;;;11.78;100.00;100984.13;6223832;28;20512;-71
2022/09/24 06:23:11;;;;;;;13.68;8.52;;;;;;;11.79;100.00;100989.31;6224345;28;20060;-71
2022/09/24 06:26:13;;;;;;;19.75;11.23;;;;;;;11.80;100.00;100984.88;6223498;28;20049;-70
2022/09/24 06:29:14;;;;;;;18.73;10.32;;;;;;;11.82;100.00;100990.94;6224286;28;20631;-70
2022/09/24 06:32:18;;;;;;;18.70;8.75;;;;;;;11.85;100.00;100993.41;6223540;28;20057;-71
2022/09/24 06:35:21;;;;;;;22.35;10.63;;;;;;;11.88;100.00;100993.25;6219894;28;20054;-70
2022/09/24 06:38:22;;;;;;;20.58;10.68;;;;;;;11.88;100.00;100990.63;6211507;28;20505;-71
2022/09/24 06:41:24;;;;;;;21.13;10.05;;;;;;;11.89;100.00;100995.78;6208657;28;20057;-70
2022/09/24 06:44:26;;;;;;;19.40;11.05;;;;;;;11.92;100.00;100992.16;6210880;28;20053;-71
2022/09/24 06:47:28;;;;;;;17.45;10.65;;;;;;;11.89;100.00;100993.16;6210272;28;20054;-71
2022/09/24 06:50:33;;;;;;;20.70;10.32;;;;;;;11.95;100.00;100993.78;6208242;28;20056;-71
2022/09/24 06:53:34;;;;;;;20.52;10.02;;;;;;;11.96;100.00;101001.59;6209318;28;20046;-70
2022/09/24 06:56:36;;;;;;;19.77;10.93;;;;;;;11.95;100.00;100996.41;6209546;28;20053;-70
2022/09/24 06:59:37;;;;;;;20.45;10.95;;;;;;;11.92;100.00;101006.16;6209180;28;20046;-70
2022/09/24 07:02:39;;;;;;;21.63;10.80;;;;;;;11.93;100.00;101007.84;6206594;28;20454;-70
2022/09/24 07:05:41;;;;;;;22.55;11.43;;;;;;;11.90;100.00;101001.94;6209730;28;20437;-70
2022/09/24 07:08:43;;;;;;;19.67;11.07;;;;;;;11.96;100.00;101006.00;6200963;28;20440;-70
2022/09/24 07:11:45;;;;;;;19.50;10.82;;;;;;;11.96;100.00;100998.94;6219508;28;20046;-70
2022/09/24 07:14:46;;;;;;;22.52;11.07;;;;;;;11.98;100.00;101004.13;6215880;28;20050;-70
2022/09/24 07:17:48;;;;;;;18.08;10.85;;;;;;;12.00;100.00;101000.47;6214517;28;20418;-71
2022/09/24 07:20:54;;;;;;;22.77;11.05;;;;;;;12.01;100.00;101002.19;6222675;28;20057;-71
2022/09/24 07:23:55;;;;;;;20.15;9.40;;;;;;;12.02;100.00;101000.41;6217299;28;20050;-71
2022/09/24 07:26:57;;;;;;;22.90;11.23;;;;;;;12.01;100.00;101002.19;6222646;28;20061;-70
2022/09/24 07:29:58;;;;;;;23.08;11.20;;;;;;;12.02;100.00;101009.13;6222585;28;20498;-70
2022/09/24 07:33:00;;;;;;;22.48;12.15;;;;;;;12.04;100.00;101007.28;6222667;28;20054;-70
2022/09/24 07:36:06;;;;;;;20.90;10.68;;;;;;;12.05;100.00;101013.41;6219536;28;20703;-70
2022/09/24 07:39:07;;;;;;;24.52;11.25;;;;;;;12.06;100.00;101015.09;6222376;28;20129;-70
2022/09/24 07:42:08;;;;;;;23.65;11.85;;;;;;;12.03;100.00;101017.88;6221465;28;20386;-71
2022/09/24 07:45:10;;;;;;;20.48;10.25;;;;;;;11.99;100.00;101006.69;6217805;28;20046;-70
2022/09/24 07:48:14;;;;;;;20.38;10.35;;;;;;;12.01;100.00;101010.09;6218372;28;20046;-71
2022/09/24 07:51:17;;;;;;;17.48;9.80;;;;;;;12.04;100.00;101017.81;6222088;28;20141;-70
2022/09/24 07:54:19;;;;;;;20.10;11.45;;;;;;;12.06;100.00;101018.56;6218099;28;20053;-70
2022/09/24 07:57:20;;;;;;;16.80;10.00;;;;;;;12.08;100.00;101014.09;6222346;28;20061;-70
2022/09/24 08:00:23;;;;;;;22.85;11.88;;;;;;;12.05;100.00;101021.31;6221645;28;20061;-70
2022/09/24 08:03:25;;;;;;;20.95;11.27;;;;;;;12.06;100.00;101015.09;6221190;28;20041;-70
2022/09/24 08:06:27;;;;;;;20.83;10.57;;;;;;;12.08;100.00;101019.34;6213345;28;20057;-70
2022/09/24 08:09:29;;;;;;;21.02;10.80;;;;;;;12.12;100.00;101012.97;6220174;28;20049;-71
2022/09/24 08:12:30;;;;;;;21.55;11.65;;;;;;;12.13;100.00;101013.84;6220317;28;20054;-71
2022/09/24 08:15:31;;;;;;;18.17;9.98;;;;;;;12.13;100.00;101014.69;6221540;28;20041;-71
2022/09/24 08:18:33;;;;;;;19.38;9.02;;;;;;;12.13;100.00;101013.84;6220939;28;20061;-70
2022/09/24 08:21:38;;;;;;;18.17;10.13;;;;;;;12.16;100.00;101017.13;6221821;28;20066;-71
2022/09/24 08:24:39;;;;;;;16.48;9.15;;;;;;;12.22;100.00;101010.69;6208652;28;20046;-71
2022/09/24 08:27:41;;;;;;;15.50;8.52;;;;;;;12.27;100.00;101013.06;6207282;28;20141;-71
2022/09/24 08:30:43;;;;;;;18.58;10.43;;;;;;;12.29;100.00;101013.81;6218204;28;20058;-70
2022/09/24 08:33:45;;;;;;;12.90;8.13;;;;;;;12.30;100.00;101016.34;6206725;28;20057;-70
2022/09/24 08:36:49;;;;;;;22.15;9.88;;;;;;;12.34;100.00;101019.66;6212664;28;20413;-71
2022/09/24 08:39:50;;;;;;;17.92;9.55;;;;;;;12.36;100.00;101010.75;6215155;28;20060;-71
2022/09/24 08:43:02;;;;;;;17.88;9.75;;;;;;;12.40;100.00;101009.66;6197622;28;20050;-71
2022/09/24 08:49:37;;;;;;;13.73;8.38;;;;;;;12.50;100.00;101017.88;6221754;28;20409;-71
2022/09/24 08:53:03;;;;;;;18.33;10.00;;;;;;;12.55;100.00;101017.63;6221209;28;20061;-71
2022/09/24 08:56:06;;;;;;;21.25;11.23;;;;;;;12.54;100.00;101011.50;6221262;28;20062;-71
2022/09/24 08:59:26;;;;;;;21.52;11.15;;;;;;;12.58;100.00;101015.66;6221324;28;20056;-71
2022/09/24 09:02:42;;;;;;;21.60;11.65;;;;;;;12.58;100.00;101020.06;6221250;28;20057;-71
2022/09/24 09:05:51;;;;;;;21.25;10.75;;;;;;;12.63;100.00;101015.41;6220880;28;20085;-74
2022/09/24 09:09:03;;;;;;;18.23;10.52;;;;;;;12.69;100.00;101017.66;6221444;28;20501;-72
2022/09/24 09:12:13;;;;;;;22.30;10.52;;;;;;;12.73;100.00;101026.25;6225794;28;20053;-72
2022/09/24 09:15:18;;;;;;;21.55;11.02;;;;;;;12.73;100.00;101020.97;6225514;28;20045;-72
2022/09/24 09:18:26;;;;;;;18.27;8.85;;;;;;;12.77;100.00;101025.16;6225837;28;20056;-72
2022/09/24 09:21:34;;;;;;;15.63;8.55;;;;;;;12.79;100.00;101028.53;6224143;28;20060;-72
2022/09/24 09:24:44;;;;;;;21.08;10.68;;;;;;;12.81;100.00;101022.25;6225402;28;20509;-72
2022/09/24 09:27:49;;;;;;;22.83;10.68;;;;;;;12.83;100.00;101033.53;6225474;28;20057;-72
2022/09/24 09:31:08;;;;;;;20.25;10.07;;;;;;;12.86;100.00;101024.59;6225282;28;20510;-72
2022/09/24 09:34:36;;;;;;;20.45;11.40;;;;;;;12.85;100.00;101026.41;6224920;28;20049;-72
2022/09/24 09:37:44;;;;;;;18.98;10.55;;;;;;;12.91;100.00;101028.66;6225152;28;20498;-72
2022/09/24 09:40:56;;;;;;;21.75;10.35;;;;;;;12.85;100.00;101030.81;6224970;28;20060;-72
2022/09/24 09:44:01;;;;;;;22.30;11.95;;;;;;;12.88;100.00;101020.09;6224811;28;20060;-72
2022/09/24 09:47:11;;;;;;;19.88;10.88;;;;;;;12.85;100.00;101022.88;6225222;28;20056;-71
2022/09/24 09:50:23;;;;;;;23.33;12.15;;;;;;;12.87;100.00;101023.66;6224717;28;20050;-72
2022/09/24 09:53:26;;;;;;;21.35;12.18;;;;;;;12.90;100.00;101026.13;6225247;28;20502;-71
2022/09/24 09:56:31;;;;;;;24.60;11.07;;;;;;;12.91;100.00;101027.81;6224518;28;20053;-72
2022/09/24 09:59:34;;;;;;;22.58;10.27;;;;;;;12.95;100.00;101024.06;6223312;28;20560;-71
2022/09/24 10:02:41;;;;;;;24.38;10.25;;;;;;;12.93;100.00;101025.94;6216168;28;20049;-72
2022/09/24 10:05:51;;;;;;;19.48;9.27;;;;;;;12.97;100.00;101024.81;6205875;28;20057;-71
2022/09/24 10:08:53;;;;;;;26.92;12.20;;;;;;;12.99;100.00;101025.59;6224723;28;20061;-71
2022/09/24 10:12:06;;;;;;;23.58;10.40;;;;;;;13.02;100.00;101020.13;6224075;28;20061;-71
2022/09/24 10:15:17;;;;;;;18.77;10.10;;;;;;;13.07;100.00;101023.31;6221886;28;20069;-72
2022/09/24 10:18:29;;;;;;;18.23;10.27;;;;;;;13.07;100.00;101015.41;6224367;28;20057;-72
2022/09/24 10:21:33;;;;;;;18.33;10.70;;;;;;;13.10;100.00;101015.25;6215825;28;20520;-72
2022/09/24 10:24:36;;;;;;;23.92;11.40;;;;;;;13.12;100.00;101023.06;6223764;28;20046;-72
2022/09/24 10:27:41;;;;;;;21.65;11.00;;;;;;;13.11;100.00;101016.09;6216780;28;20413;-72
2022/09/24 10:30:54;;;;;;;19.15;10.55;;;;;;;13.09;100.00;101018.81;6211371;28;20426;-72
2022/09/24 10:33:58;;;;;;;19.63;10.05;;;;;;;13.10;100.00;101009.13;6201821;28;20050;-72
2022/09/24 10:37:02;;;;;;;18.23;9.38;;;;;;;13.12;100.00;101020.41;6199354;28;20049;-72
2022/09/24 10:40:14;;;;;;;18.88;10.40;;;;;;;13.10;100.00;101011.75;6207203;28;20052;-71
2022/09/24 10:43:19;;;;;;;19.30;9.63;;;;;;;13.10;100.00;101017.88;6220422;28;20156;-72
2022/09/24 10:46:40;;;;;;;17.52;9.20;;;;;;;13.11;100.00;101022.22;6222091;28;20057;-71
2022/09/24 10:49:58;;;;;;;20.55;7.90;;;;;;;13.12;100.00;101015.13;6212735;28;20050;-72
2022/09/24 10:53:03;;;;;;;21.77;10.20;;;;;;;13.09;100.00;101010.06;6221635;28;20053;-72
2022/09/24 10:56:14;;;;;;;14.10;7.70;;;;;;;13.06;100.00;101019.00;6221621;28;20517;-71
2022/09/24 10:59:34;;;;;;;16.92;8.18;;;;;;;13.08;100.00;101025.06;6221552;28;20498;-71
2022/09/24 11:03:05;;;;;;;16.60;8.15;;;;;;;13.04;100.00;101010.34;6221320;28;20422;-72
2022/09/24 11:06:17;;;;;;;20.52;8.05;;;;;;;13.05;100.00;101017.31;6222774;28;20046;-72
2022/09/24 11:09:29;;;;;;;21.00;8.75;;;;;;;13.03;100.00;101015.69;6223334;28;20132;-72
2022/09/24 11:12:38;;;;;;;19.23;9.27;;;;;;;13.02;100.00;101014.00;6223002;28;20493;-72
2022/09/24 11:16:00;;;;;;;13.25;7.95;;;;;;;13.04;100.00;101007.69;6222901;28;20046;-71
2022/09/24 11:19:07;;;;;;;15.68;8.13;;;;;;;13.03;100.00;101013.03;6223063;28;20058;-72
2022/09/24 11:22:13;;;;;;;17.65;9.30;;;;;;;13.03;100.00;101010.41;6222594;28;20061;-72
2022/09/24 11:25:30;;;;;;;16.85;8.05;;;;;;;13.03;100.00;101011.25;6222258;28;20421;-72
2022/09/24 11:29:00;;;;;;;18.90;8.82;;;;;;;13.03;100.00;101011.25;6214854;28;20061;-77
2022/09/24 11:32:07;;;;;;;;;;;;;;;13.07;100.00;101009.28;6212868;28;20046;-71
2022/09/24 11:35:27;;;;;;;15.15;7.93;;;;;;;13.07;100.00;101010.13;6210328;28;19921;-71
2022/09/24 11:38:48;;;;;;;19.10;7.35;;;;;;;13.12;100.00;101007.22;6218380;28;20072;-72
2022/09/24 11:41:59;;;;;;;15.27;8.38;;;;;;;13.11;100.00;101010.81;6197994;28;20061;-71
2022/09/24 11:45:16;;;;;;;14.18;7.72;;;;;;;13.12;100.00;101008.06;6197521;28;20574;-71
2022/09/24 11:48:42;;;;;;;16.50;7.75;;;;;;;13.12;100.00;101002.78;6197961;28;20430;-71
2022/09/24 11:51:53;;;;;;;14.70;8.27;;;;;;;13.17;100.00;101010.44;6212507;28;20050;-71
2022/09/24 11:55:04;;;;;;;21.98;8.63;;;;;;;13.18;100.00;101009.50;6222067;28;20072;-72
2022/09/24 11:58:15;;;;;;;15.48;8.48;;;;;;;13.21;100.00;101009.31;6222182;28;20568;-71
2022/09/24 12:01:20;;;;;;;14.75;8.15;;;;;;;13.18;100.00;101005.09;6221876;28;20049;-72
2022/09/24 12:04:29;;;;;;;15.85;8.38;;;;;;;13.25;100.00;101002.09;6221591;28;20053;-71
2022/09/24 12:07:38;;;;;;;14.18;7.85;;;;;;;13.23;100.00;101006.63;6222144;28;20156;-71
2022/09/24 12:10:45;;;;;;;15.02;8.13;;;;;;;13.23;100.00;101004.00;6221577;28;20054;-72
2022/09/24 12:13:51;;;;;;;14.93;8.80;;;;;;;13.25;100.00;101002.09;6221619;28;20537;-71
2022/09/24 12:16:58;;;;;;;16.38;8.60;;;;;;;13.26;100.00;101004.63;6221879;28;20056;-72
2022/09/24 12:20:07;;;;;;;17.70;8.20;;;;;;;13.24;100.00;101011.81;6221448;28;20433;-71
2022/09/24 12:23:12;;;;;;;18.60;9.13;;;;;;;13.24;100.00;101005.69;6221950;28;20054;-72
2022/09/24 12:26:16;;;;;;;17.85;8.05;;;;;;;13.23;100.00;101001.34;6221327;28;20046;-72
2022/09/24 12:32:59;;;;;;;16.05;8.75;;;;;;;13.17;100.00;100998.09;6221788;28;20086;-72
2022/09/24 12:36:09;;;;;;;17.40;9.13;;;;;;;13.09;100.00;101002.16;6221270;28;20050;-72
2022/09/24 12:39:15;;;;;;;22.52;10.50;;;;;;;13.06;100.00;101000.53;6221824;28;20050;-72
2022/09/24 12:42:20;;;;;;;17.13;9.07;;;;;;;13.04;100.00;100998.94;6221865;28;20052;-71
2022/09/24 12:45:22;;;;;;;15.88;8.27;;;;;;;13.04;100.00;100998.94;6223482;28;20046;-72
2022/09/24 12:48:26;;;;;;;16.55;8.02;;;;;;;13.06;100.00;100999.69;6226373;28;20489;-71
2022/09/24 12:51:37;;;;;;;13.23;7.35;;;;;;;13.07;100.00;100994.31;6226110;28;20057;-71
2022/09/24 12:54:39;;;;;;;19.85;9.23;;;;;;;13.09;100.00;100995.06;6226093;28;20493;-71
2022/09/24 12:57:42;;;;;;;17.52;7.97;;;;;;;13.08;100.00;100988.09;6226144;28;20067;-72
2022/09/24 13:00:46;;;;;;;18.65;8.05;;;;;;;13.06;100.00;100986.50;6225743;28;20046;-71
2022/09/24 13:04:01;;;;;;;18.23;8.10;;;;;;;13.08;100.00;100981.94;6225545;28;20469;-70
2022/09/24 13:07:29;;;;;;;16.58;7.05;;;;;;;13.11;100.00;100984.41;6226131;28;20050;-71
2022/09/24 13:10:33;;;;;;;16.13;7.90;;;;;;;13.12;100.00;100972.91;6224944;28;20505;-71
2022/09/24 13:13:39;;;;;;;18.73;8.43;;;;;;;13.13;100.00;100982.56;6226041;28;20672;-72
2022/09/24 13:16:42;;;;;;;16.30;8.55;;;;;;;13.14;100.00;100971.06;6225068;28;20050;-70
2022/09/24 13:19:46;;;;;;;14.27;7.55;;;;;;;13.14;100.00;100971.91;6225321;28;20049;-71
2022/09/24 13:22:57;;;;;;;19.08;9.40;;;;;;;13.12;100.00;100983.47;6225696;28;20049;-71
2022/09/24 13:26:02;;;;;;;17.35;9.55;;;;;;;13.14;100.00;100979.81;6225047;28;20046;-71
2022/09/24 13:29:05;;;;;;;23.98;9.40;;;;;;;13.12;100.00;100979.03;6225411;28;20433;-71
2022/09/24 13:32:19;;;;;;;19.77;8.70;;;;;;;13.10;100.00;100978.28;6225140;28;20402;-72
2022/09/24 13:35:24;;;;;;;17.98;9.18;;;;;;;13.11;100.00;100968.59;6224799;28;20053;-71
2022/09/24 13:38:31;;;;;;;16.50;9.43;;;;;;;13.13;100.00;100979.91;6225363;28;20046;-71
2022/09/24 13:41:42;;;;;;;20.13;9.93;;;;;;;13.15;100.00;100978.88;6223822;28;20076;-71
2022/09/24 13:44:48;;;;;;;15.38;8.10;;;;;;;13.18;100.00;100980.47;6217341;28;20046;-71
2022/09/24 13:47:53;;;;;;;17.40;9.10;;;;;;;13.18;100.00;100981.31;6224914;28;20061;-71
2022/09/24 13:50:55;;;;;;;17.42;8.95;;;;;;;13.20;100.00;100976.78;6219236;28;20050;-71
2022/09/24 13:54:04;;;;;;;17.23;8.95;;;;;;;13.22;100.00;100976.75;6224557;28;20057;-71
2022/09/24 13:57:11;;;;;;;19.02;9.45;;;;;;;13.25;100.00;100976.53;6224698;28;20042;-70
2022/09/24 14:00:15;;;;;;;16.80;8.15;;;;;;;13.26;100.00;100975.59;6217138;28;20425;-70
2022/09/24 14:03:24;;;;;;;20.98;9.20;;;;;;;13.28;100.00;100972.88;6223805;28;20050;-71
2022/09/24 14:06:34;;;;;;;18.88;9.00;;;;;;;13.31;100.00;100978.84;6222160;28;20046;-71
2022/09/24 14:09:37;;;;;;;14.10;6.70;;;;;;;13.34;100.00;100972.50;6224813;28;20053;-71
2022/09/24 14:12:39;;;;;;;20.88;9.98;;;;;;;13.36;100.00;100983.84;6224315;28;20061;-72
2022/09/24 14:15:50;;;;;;;19.42;9.98;;;;;;;13.33;100.00;100976.94;6223854;28;20058;-71
2022/09/24 14:19:01;;;;;;;19.13;9.45;;;;;;;13.36;100.00;100981.19;6224305;28;20049;-71